sensor_id;sensor_type;location;lat;lon;timestamp;P1;durP1;ratioP1;P2;durP2;ratioP2
29958;SDS011;16815;51.100;6.516;2023-02-11T00:00:50;23.83;;;18.20;;
29958;SDS011;16815;51.100;6.516;2023-02-11T00:03:16;36.97;;;18.00;;
29958;SDS011;16815;51.100;6.516;2023-02-11T00:05:42;27.57;;;18.67;;
29958;SDS011;16815;51.100;6.516;2023-02-11T00:08:08;25.80;;;17.23;;
29958;SDS011;16815;51.100;6.516;2023-02-11T00:10:34;24.47;;;16.73;;
29958;SDS011;16815;51.100;6.516;2023-02-11T00:13:00;26.47;;;19.00;;
29958;SDS011;16815;51.100;6.516;2023-02-11T00:15:26;25.07;;;17.47;;
29958;SDS011;16815;51.100;6.516;2023-02-11T00:17:52;21.90;;;17.27;;
29958;SDS011;16815;51.100;6.516;2023-02-11T00:20:18;26.40;;;18.10;;
29958;SDS011;16815;51.100;6.516;2023-02-11T00:22:44;24.10;;;16.50;;
29958;SDS011;16815;51.100;6.516;2023-02-11T00:25:09;24.53;;;17.23;;
29958;SDS011;16815;51.100;6.516;2023-02-11T00:27:36;23.83;;;16.93;;
29958;SDS011;16815;51.100;6.516;2023-02-11T00:30:02;25.17;;;18.53;;
29958;SDS011;16815;51.100;6.516;2023-02-11T00:32:29;24.93;;;17.90;;
29958;SDS011;16815;51.100;6.516;2023-02-11T00:34:55;25.60;;;17.77;;
29958;SDS011;16815;51.100;6.516;2023-02-11T00:37:21;27.60;;;17.63;;
29958;SDS011;16815;51.100;6.516;2023-02-11T00:39:47;27.17;;;19.10;;
29958;SDS011;16815;51.100;6.516;2023-02-11T00:42:14;26.10;;;19.10;;
29958;SDS011;16815;51.100;6.516;2023-02-11T00:44:40;23.30;;;18.70;;
29958;SDS011;16815;51.100;6.516;2023-02-11T00:47:07;24.63;;;18.80;;
29958;SDS011;16815;51.100;6.516;2023-02-11T00:49:33;26.67;;;18.73;;
29958;SDS011;16815;51.100;6.516;2023-02-11T00:51:59;27.40;;;18.87;;
29958;SDS011;16815;51.100;6.516;2023-02-11T00:54:24;25.47;;;20.23;;
29958;SDS011;16815;51.100;6.516;2023-02-11T00:56:50;25.83;;;19.13;;
29958;SDS011;16815;51.100;6.516;2023-02-11T00:59:16;27.50;;;19.37;;
29958;SDS011;16815;51.100;6.516;2023-02-11T01:01:42;28.20;;;19.27;;
29958;SDS011;16815;51.100;6.516;2023-02-11T01:04:08;26.33;;;18.90;;
29958;SDS011;16815;51.100;6.516;2023-02-11T01:06:34;28.63;;;18.50;;
29958;SDS011;16815;51.100;6.516;2023-02-11T01:09:00;26.03;;;19.43;;
29958;SDS011;16815;51.100;6.516;2023-02-11T01:11:26;28.43;;;20.17;;
29958;SDS011;16815;51.100;6.516;2023-02-11T01:13:52;30.97;;;20.10;;
29958;SDS011;16815;51.100;6.516;2023-02-11T01:16:19;28.97;;;19.53;;
29958;SDS011;16815;51.100;6.516;2023-02-11T01:18:45;31.20;;;21.50;;
29958;SDS011;16815;51.100;6.516;2023-02-11T01:21:11;31.03;;;20.87;;
29958;SDS011;16815;51.100;6.516;2023-02-11T01:23:37;32.50;;;20.20;;
29958;SDS011;16815;51.100;6.516;2023-02-11T01:26:03;30.30;;;21.00;;
29958;SDS011;16815;51.100;6.516;2023-02-11T01:28:29;32.03;;;21.03;;
29958;SDS011;16815;51.100;6.516;2023-02-11T01:30:55;27.23;;;19.33;;
29958;SDS011;16815;51.100;6.516;2023-02-11T01:33:21;29.23;;;20.60;;
29958;SDS011;16815;51.100;6.516;2023-02-11T01:35:48;29.27;;;20.37;;
29958;SDS011;16815;51.100;6.516;2023-02-11T01:38:15;31.23;;;21.07;;
29958;SDS011;16815;51.100;6.516;2023-02-11T01:40:45;30.83;;;20.93;;
29958;SDS011;16815;51.100;6.516;2023-02-11T01:43:11;28.63;;;20.70;;
29958;SDS011;16815;51.100;6.516;2023-02-11T01:48:23;29.77;;;20.63;;
29958;SDS011;16815;51.100;6.516;2023-02-11T01:50:51;26.80;;;20.57;;
29958;SDS011;16815;51.100;6.516;2023-02-11T01:53:17;29.80;;;21.27;;
29958;SDS011;16815;51.100;6.516;2023-02-11T01:56:02;32.90;;;21.03;;
29958;SDS011;16815;51.100;6.516;2023-02-11T01:58:48;34.37;;;21.30;;
29958;SDS011;16815;51.100;6.516;2023-02-11T02:01:16;30.33;;;20.27;;
29958;SDS011;16815;51.100;6.516;2023-02-11T02:03:44;30.83;;;20.93;;
29958;SDS011;16815;51.100;6.516;2023-02-11T02:06:15;26.97;;;20.03;;
29958;SDS011;16815;51.100;6.516;2023-02-11T02:08:56;30.07;;;20.93;;
29958;SDS011;16815;51.100;6.516;2023-02-11T02:11:25;25.60;;;20.00;;
29958;SDS011;16815;51.100;6.516;2023-02-11T02:13:51;28.93;;;21.00;;
29958;SDS011;16815;51.100;6.516;2023-02-11T02:16:18;30.30;;;20.20;;
29958;SDS011;16815;51.100;6.516;2023-02-11T02:40:20;27.30;;;19.77;;
29958;SDS011;16815;51.100;6.516;2023-02-11T02:42:48;29.63;;;19.20;;
29958;SDS011;16815;51.100;6.516;2023-02-11T02:45:14;29.00;;;18.67;;
29958;SDS011;16815;51.100;6.516;2023-02-11T02:47:41;26.97;;;18.63;;
29958;SDS011;16815;51.100;6.516;2023-02-11T02:50:07;32.33;;;18.30;;
29958;SDS011;16815;51.100;6.516;2023-02-11T02:52:48;29.10;;;18.30;;
29958;SDS011;16815;51.100;6.516;2023-02-11T02:55:32;30.57;;;17.60;;
29958;SDS011;16815;51.100;6.516;2023-02-11T03:00:58;28.37;;;18.67;;
29958;SDS011;16815;51.100;6.516;2023-02-11T03:03:40;30.40;;;19.70;;
29958;SDS011;16815;51.100;6.516;2023-02-11T03:06:12;23.07;;;17.47;;
29958;SDS011;16815;51.100;6.516;2023-02-11T03:08:45;27.13;;;17.87;;
29958;SDS011;16815;51.100;6.516;2023-02-11T03:11:13;28.87;;;18.60;;
29958;SDS011;16815;51.100;6.516;2023-02-11T03:13:40;25.13;;;18.23;;
29958;SDS011;16815;51.100;6.516;2023-02-11T03:16:17;30.40;;;19.20;;
29958;SDS011;16815;51.100;6.516;2023-02-11T03:18:46;29.27;;;19.00;;
29958;SDS011;16815;51.100;6.516;2023-02-11T03:21:14;27.03;;;17.53;;
29958;SDS011;16815;51.100;6.516;2023-02-11T03:23:43;25.53;;;18.77;;
29958;SDS011;16815;51.100;6.516;2023-02-11T03:28:48;25.07;;;18.20;;
29958;SDS011;16815;51.100;6.516;2023-02-11T03:31:17;23.63;;;17.33;;
29958;SDS011;16815;51.100;6.516;2023-02-11T03:33:52;25.73;;;18.27;;
29958;SDS011;16815;51.100;6.516;2023-02-11T03:36:21;26.40;;;17.23;;
29958;SDS011;16815;51.100;6.516;2023-02-11T03:38:49;26.90;;;16.70;;
29958;SDS011;16815;51.100;6.516;2023-02-11T03:41:17;26.73;;;17.07;;
29958;SDS011;16815;51.100;6.516;2023-02-11T03:43:55;24.17;;;16.83;;
29958;SDS011;16815;51.100;6.516;2023-02-11T03:46:23;26.20;;;18.53;;
29958;SDS011;16815;51.100;6.516;2023-02-11T03:48:53;21.63;;;15.53;;
29958;SDS011;16815;51.100;6.516;2023-02-11T03:51:20;27.03;;;16.67;;
29958;SDS011;16815;51.100;6.516;2023-02-11T03:53:47;24.90;;;16.03;;
29958;SDS011;16815;51.100;6.516;2023-02-11T03:56:15;28.00;;;16.03;;
29958;SDS011;16815;51.100;6.516;2023-02-11T03:58:45;22.07;;;15.87;;
29958;SDS011;16815;51.100;6.516;2023-02-11T04:01:12;28.20;;;16.37;;
29958;SDS011;16815;51.100;6.516;2023-02-11T04:03:38;22.83;;;15.47;;
29958;SDS011;16815;51.100;6.516;2023-02-11T04:06:04;24.50;;;16.30;;
29958;SDS011;16815;51.100;6.516;2023-02-11T04:08:30;25.93;;;16.50;;
29958;SDS011;16815;51.100;6.516;2023-02-11T04:10:56;24.23;;;15.63;;
29958;SDS011;16815;51.100;6.516;2023-02-11T04:13:23;24.70;;;16.30;;
29958;SDS011;16815;51.100;6.516;2023-02-11T04:15:49;26.07;;;16.40;;
29958;SDS011;16815;51.100;6.516;2023-02-11T04:18:15;27.03;;;17.20;;
29958;SDS011;16815;51.100;6.516;2023-02-11T04:20:41;30.37;;;17.53;;
29958;SDS011;16815;51.100;6.516;2023-02-11T04:23:07;26.60;;;17.07;;
29958;SDS011;16815;51.100;6.516;2023-02-11T04:25:34;29.77;;;16.60;;
29958;SDS011;16815;51.100;6.516;2023-02-11T04:28:00;34.77;;;17.33;;
29958;SDS011;16815;51.100;6.516;2023-02-11T04:30:26;29.27;;;17.57;;
29958;SDS011;16815;51.100;6.516;2023-02-11T04:32:52;25.37;;;16.80;;
29958;SDS011;16815;51.100;6.516;2023-02-11T04:35:18;33.03;;;18.77;;
29958;SDS011;16815;51.100;6.516;2023-02-11T04:37:44;33.93;;;18.40;;
29958;SDS011;16815;51.100;6.516;2023-02-11T04:40:10;25.00;;;17.60;;
29958;SDS011;16815;51.100;6.516;2023-02-11T04:42:36;38.07;;;18.33;;
29958;SDS011;16815;51.100;6.516;2023-02-11T04:45:02;35.00;;;18.80;;
29958;SDS011;16815;51.100;6.516;2023-02-11T04:47:28;29.33;;;18.10;;
29958;SDS011;16815;51.100;6.516;2023-02-11T04:49:54;32.53;;;19.33;;
29958;SDS011;16815;51.100;6.516;2023-02-11T04:52:20;28.97;;;18.13;;
29958;SDS011;16815;51.100;6.516;2023-02-11T04:54:46;29.63;;;19.30;;
29958;SDS011;16815;51.100;6.516;2023-02-11T04:57:12;29.63;;;18.50;;
29958;SDS011;16815;51.100;6.516;2023-02-11T04:59:38;29.53;;;17.50;;
29958;SDS011;16815;51.100;6.516;2023-02-11T05:02:04;27.60;;;18.00;;
29958;SDS011;16815;51.100;6.516;2023-02-11T05:04:30;30.03;;;18.13;;
29958;SDS011;16815;51.100;6.516;2023-02-11T05:06:56;26.47;;;17.53;;
29958;SDS011;16815;51.100;6.516;2023-02-11T05:09:22;33.83;;;18.87;;
29958;SDS011;16815;51.100;6.516;2023-02-11T05:11:48;27.10;;;17.73;;
29958;SDS011;16815;51.100;6.516;2023-02-11T05:14:14;28.13;;;19.00;;
29958;SDS011;16815;51.100;6.516;2023-02-11T05:16:40;28.83;;;18.57;;
29958;SDS011;16815;51.100;6.516;2023-02-11T05:19:06;35.03;;;18.90;;
29958;SDS011;16815;51.100;6.516;2023-02-11T05:21:32;29.60;;;19.13;;
29958;SDS011;16815;51.100;6.516;2023-02-11T05:23:58;32.50;;;19.40;;
29958;SDS011;16815;51.100;6.516;2023-02-11T05:26:24;28.03;;;18.40;;
29958;SDS011;16815;51.100;6.516;2023-02-11T05:28:50;29.43;;;19.87;;
29958;SDS011;16815;51.100;6.516;2023-02-11T05:31:16;33.30;;;20.07;;
29958;SDS011;16815;51.100;6.516;2023-02-11T05:33:42;32.90;;;20.23;;
29958;SDS011;16815;51.100;6.516;2023-02-11T05:36:09;30.00;;;20.37;;
29958;SDS011;16815;51.100;6.516;2023-02-11T05:38:36;35.00;;;21.07;;
29958;SDS011;16815;51.100;6.516;2023-02-11T05:41:02;30.30;;;20.13;;
29958;SDS011;16815;51.100;6.516;2023-02-11T05:43:28;34.40;;;21.17;;
29958;SDS011;16815;51.100;6.516;2023-02-11T05:45:54;30.73;;;19.90;;
29958;SDS011;16815;51.100;6.516;2023-02-11T05:48:20;37.63;;;22.00;;
29958;SDS011;16815;51.100;6.516;2023-02-11T05:50:47;36.50;;;21.10;;
29958;SDS011;16815;51.100;6.516;2023-02-11T05:53:13;31.50;;;21.20;;
29958;SDS011;16815;51.100;6.516;2023-02-11T05:55:38;36.73;;;21.80;;
29958;SDS011;16815;51.100;6.516;2023-02-11T05:58:05;34.60;;;22.17;;
29958;SDS011;16815;51.100;6.516;2023-02-11T06:00:31;39.03;;;23.03;;
29958;SDS011;16815;51.100;6.516;2023-02-11T06:02:57;34.17;;;22.17;;
29958;SDS011;16815;51.100;6.516;2023-02-11T06:05:23;31.90;;;21.63;;
29958;SDS011;16815;51.100;6.516;2023-02-11T06:07:49;33.27;;;22.23;;
29958;SDS011;16815;51.100;6.516;2023-02-11T06:10:15;35.07;;;22.23;;
29958;SDS011;16815;51.100;6.516;2023-02-11T06:12:41;40.57;;;22.73;;
29958;SDS011;16815;51.100;6.516;2023-02-11T06:15:08;31.23;;;22.00;;
29958;SDS011;16815;51.100;6.516;2023-02-11T06:17:34;34.03;;;22.10;;
29958;SDS011;16815;51.100;6.516;2023-02-11T06:20:01;33.03;;;21.80;;
29958;SDS011;16815;51.100;6.516;2023-02-11T06:22:28;34.23;;;21.80;;
29958;SDS011;16815;51.100;6.516;2023-02-11T06:24:54;36.40;;;22.40;;
29958;SDS011;16815;51.100;6.516;2023-02-11T06:27:20;32.70;;;20.80;;
29958;SDS011;16815;51.100;6.516;2023-02-11T06:29:46;36.10;;;22.07;;
29958;SDS011;16815;51.100;6.516;2023-02-11T06:32:12;38.23;;;23.33;;
29958;SDS011;16815;51.100;6.516;2023-02-11T06:34:38;33.47;;;22.30;;
29958;SDS011;16815;51.100;6.516;2023-02-11T06:37:04;35.30;;;21.70;;
29958;SDS011;16815;51.100;6.516;2023-02-11T06:39:30;39.30;;;23.07;;
29958;SDS011;16815;51.100;6.516;2023-02-11T06:41:56;40.77;;;21.90;;
29958;SDS011;16815;51.100;6.516;2023-02-11T06:44:22;36.03;;;23.43;;
29958;SDS011;16815;51.100;6.516;2023-02-11T06:46:48;34.87;;;21.17;;
29958;SDS011;16815;51.100;6.516;2023-02-11T06:49:14;37.37;;;23.20;;
29958;SDS011;16815;51.100;6.516;2023-02-11T06:51:40;39.47;;;22.53;;
29958;SDS011;16815;51.100;6.516;2023-02-11T06:54:06;36.07;;;22.37;;
29958;SDS011;16815;51.100;6.516;2023-02-11T06:56:32;39.57;;;23.50;;
29958;SDS011;16815;51.100;6.516;2023-02-11T06:58:59;35.17;;;23.20;;
29958;SDS011;16815;51.100;6.516;2023-02-11T07:01:26;39.83;;;23.60;;
29958;SDS011;16815;51.100;6.516;2023-02-11T07:03:52;36.60;;;22.27;;
29958;SDS011;16815;51.100;6.516;2023-02-11T07:06:19;35.90;;;22.90;;
29958;SDS011;16815;51.100;6.516;2023-02-11T07:08:46;40.10;;;21.63;;
29958;SDS011;16815;51.100;6.516;2023-02-11T07:11:16;35.80;;;21.37;;
29958;SDS011;16815;51.100;6.516;2023-02-11T07:13:43;41.00;;;22.27;;
29958;SDS011;16815;51.100;6.516;2023-02-11T07:16:10;33.53;;;21.63;;
29958;SDS011;16815;51.100;6.516;2023-02-11T07:18:36;35.53;;;21.67;;
29958;SDS011;16815;51.100;6.516;2023-02-11T07:21:03;36.70;;;23.47;;
29958;SDS011;16815;51.100;6.516;2023-02-11T07:23:29;39.80;;;23.70;;
29958;SDS011;16815;51.100;6.516;2023-02-11T07:25:55;41.73;;;23.03;;
29958;SDS011;16815;51.100;6.516;2023-02-11T07:28:21;39.97;;;23.57;;
29958;SDS011;16815;51.100;6.516;2023-02-11T07:30:47;41.63;;;23.27;;
29958;SDS011;16815;51.100;6.516;2023-02-11T07:33:13;35.60;;;21.33;;
29958;SDS011;16815;51.100;6.516;2023-02-11T07:35:39;40.73;;;23.47;;
29958;SDS011;16815;51.100;6.516;2023-02-11T07:38:05;41.97;;;23.23;;
29958;SDS011;16815;51.100;6.516;2023-02-11T07:40:31;37.77;;;24.03;;
29958;SDS011;16815;51.100;6.516;2023-02-11T07:42:57;38.23;;;22.97;;
29958;SDS011;16815;51.100;6.516;2023-02-11T07:45:25;38.30;;;22.53;;
29958;SDS011;16815;51.100;6.516;2023-02-11T07:47:51;41.80;;;24.23;;
29958;SDS011;16815;51.100;6.516;2023-02-11T07:50:17;40.67;;;22.90;;
29958;SDS011;16815;51.100;6.516;2023-02-11T07:52:43;41.70;;;23.23;;
29958;SDS011;16815;51.100;6.516;2023-02-11T07:55:09;45.07;;;24.60;;
29958;SDS011;16815;51.100;6.516;2023-02-11T07:57:35;37.27;;;22.57;;
29958;SDS011;16815;51.100;6.516;2023-02-11T08:00:02;42.43;;;23.80;;
29958;SDS011;16815;51.100;6.516;2023-02-11T08:02:28;35.07;;;24.00;;
29958;SDS011;16815;51.100;6.516;2023-02-11T08:04:54;41.50;;;23.97;;
29958;SDS011;16815;51.100;6.516;2023-02-11T08:07:20;50.77;;;24.87;;
29958;SDS011;16815;51.100;6.516;2023-02-11T08:09:46;46.50;;;25.40;;
29958;SDS011;16815;51.100;6.516;2023-02-11T08:12:12;44.50;;;24.37;;
29958;SDS011;16815;51.100;6.516;2023-02-11T08:14:38;38.67;;;24.70;;
29958;SDS011;16815;51.100;6.516;2023-02-11T08:17:04;41.67;;;24.63;;
29958;SDS011;16815;51.100;6.516;2023-02-11T08:19:30;42.03;;;24.10;;
29958;SDS011;16815;51.100;6.516;2023-02-11T08:21:56;39.53;;;23.00;;
29958;SDS011;16815;51.100;6.516;2023-02-11T08:24:24;39.63;;;24.77;;
29958;SDS011;16815;51.100;6.516;2023-02-11T08:26:50;44.73;;;25.53;;
29958;SDS011;16815;51.100;6.516;2023-02-11T08:29:16;40.03;;;24.60;;
29958;SDS011;16815;51.100;6.516;2023-02-11T08:31:43;46.73;;;25.63;;
29958;SDS011;16815;51.100;6.516;2023-02-11T08:34:10;41.87;;;25.10;;
29958;SDS011;16815;51.100;6.516;2023-02-11T08:36:38;39.67;;;25.03;;
29958;SDS011;16815;51.100;6.516;2023-02-11T08:39:05;47.40;;;26.67;;
29958;SDS011;16815;51.100;6.516;2023-02-11T08:41:32;45.00;;;25.60;;
29958;SDS011;16815;51.100;6.516;2023-02-11T08:43:58;38.87;;;25.90;;
29958;SDS011;16815;51.100;6.516;2023-02-11T08:46:24;41.73;;;26.70;;
29958;SDS011;16815;51.100;6.516;2023-02-11T08:48:51;44.73;;;26.43;;
29958;SDS011;16815;51.100;6.516;2023-02-11T08:51:21;43.10;;;26.60;;
29958;SDS011;16815;51.100;6.516;2023-02-11T08:53:47;40.30;;;25.67;;
29958;SDS011;16815;51.100;6.516;2023-02-11T08:56:14;48.23;;;27.60;;
29958;SDS011;16815;51.100;6.516;2023-02-11T08:58:40;43.77;;;27.03;;
29958;SDS011;16815;51.100;6.516;2023-02-11T09:01:10;51.67;;;28.03;;
29958;SDS011;16815;51.100;6.516;2023-02-11T09:03:36;47.50;;;28.23;;
29958;SDS011;16815;51.100;6.516;2023-02-11T09:06:03;44.63;;;28.07;;
29958;SDS011;16815;51.100;6.516;2023-02-11T09:08:29;48.20;;;28.40;;
29958;SDS011;16815;51.100;6.516;2023-02-11T09:10:55;40.70;;;26.23;;
29958;SDS011;16815;51.100;6.516;2023-02-11T09:13:21;43.37;;;26.43;;
29958;SDS011;16815;51.100;6.516;2023-02-11T09:15:47;41.93;;;26.30;;
29958;SDS011;16815;51.100;6.516;2023-02-11T09:18:13;42.27;;;26.87;;
29958;SDS011;16815;51.100;6.516;2023-02-11T09:20:39;45.13;;;28.20;;
29958;SDS011;16815;51.100;6.516;2023-02-11T09:23:05;51.33;;;28.93;;
29958;SDS011;16815;51.100;6.516;2023-02-11T09:25:31;44.20;;;26.33;;
29958;SDS011;16815;51.100;6.516;2023-02-11T09:27:57;42.50;;;27.77;;
29958;SDS011;16815;51.100;6.516;2023-02-11T09:30:23;46.20;;;26.93;;
29958;SDS011;16815;51.100;6.516;2023-02-11T09:32:49;45.70;;;27.83;;
29958;SDS011;16815;51.100;6.516;2023-02-11T09:35:15;46.63;;;26.77;;
29958;SDS011;16815;51.100;6.516;2023-02-11T09:37:41;44.40;;;27.10;;
29958;SDS011;16815;51.100;6.516;2023-02-11T09:40:07;45.10;;;27.37;;
29958;SDS011;16815;51.100;6.516;2023-02-11T09:42:38;37.50;;;25.83;;
29958;SDS011;16815;51.100;6.516;2023-02-11T09:45:09;46.50;;;27.43;;
29958;SDS011;16815;51.100;6.516;2023-02-11T09:47:38;43.03;;;26.57;;
29958;SDS011;16815;51.100;6.516;2023-02-11T09:50:06;38.07;;;23.57;;
29958;SDS011;16815;51.100;6.516;2023-02-11T09:52:39;40.77;;;26.63;;
29958;SDS011;16815;51.100;6.516;2023-02-11T09:55:25;40.13;;;26.50;;
29958;SDS011;16815;51.100;6.516;2023-02-11T09:57:52;46.10;;;26.63;;
29958;SDS011;16815;51.100;6.516;2023-02-11T10:00:19;46.33;;;26.97;;
29958;SDS011;16815;51.100;6.516;2023-02-11T10:08:01;41.57;;;26.00;;
29958;SDS011;16815;51.100;6.516;2023-02-11T10:12:59;41.53;;;26.97;;
29958;SDS011;16815;51.100;6.516;2023-02-11T10:16:12;41.37;;;26.47;;
29958;SDS011;16815;51.100;6.516;2023-02-11T10:23:14;41.50;;;25.43;;
29958;SDS011;16815;51.100;6.516;2023-02-11T10:25:42;46.80;;;26.93;;
29958;SDS011;16815;51.100;6.516;2023-02-11T10:28:16;40.70;;;27.03;;
29958;SDS011;16815;51.100;6.516;2023-02-11T10:30:44;41.40;;;25.20;;
29958;SDS011;16815;51.100;6.516;2023-02-11T10:33:16;44.97;;;26.73;;
29958;SDS011;16815;51.100;6.516;2023-02-11T10:35:45;41.33;;;25.73;;
29958;SDS011;16815;51.100;6.516;2023-02-11T10:38:11;42.80;;;25.50;;
29958;SDS011;16815;51.100;6.516;2023-02-11T10:40:37;45.00;;;28.97;;
29958;SDS011;16815;51.100;6.516;2023-02-11T10:43:03;48.03;;;27.37;;
29958;SDS011;16815;51.100;6.516;2023-02-11T10:45:35;44.77;;;27.43;;
29958;SDS011;16815;51.100;6.516;2023-02-11T10:48:05;41.77;;;26.00;;
29958;SDS011;16815;51.100;6.516;2023-02-11T10:50:32;42.67;;;27.13;;
29958;SDS011;16815;51.100;6.516;2023-02-11T10:55:37;43.93;;;26.57;;
29958;SDS011;16815;51.100;6.516;2023-02-11T10:58:03;43.87;;;27.20;;
29958;SDS011;16815;51.100;6.516;2023-02-11T11:02:58;42.97;;;25.87;;
29958;SDS011;16815;51.100;6.516;2023-02-11T11:05:32;45.87;;;28.10;;
29958;SDS011;16815;51.100;6.516;2023-02-11T11:07:59;41.40;;;27.30;;
29958;SDS011;16815;51.100;6.516;2023-02-11T11:10:28;44.90;;;27.10;;
29958;SDS011;16815;51.100;6.516;2023-02-11T11:12:55;45.07;;;27.20;;
29958;SDS011;16815;51.100;6.516;2023-02-11T11:15:22;47.00;;;28.37;;
29958;SDS011;16815;51.100;6.516;2023-02-11T11:17:49;45.97;;;27.63;;
29958;SDS011;16815;51.100;6.516;2023-02-11T11:20:25;47.03;;;27.67;;
29958;SDS011;16815;51.100;6.516;2023-02-11T11:23:14;43.37;;;28.37;;
29958;SDS011;16815;51.100;6.516;2023-02-11T11:25:42;44.60;;;27.90;;
29958;SDS011;16815;51.100;6.516;2023-02-11T11:28:17;48.70;;;29.07;;
29958;SDS011;16815;51.100;6.516;2023-02-11T11:30:44;46.10;;;29.77;;
29958;SDS011;16815;51.100;6.516;2023-02-11T11:36:13;49.70;;;29.10;;
29958;SDS011;16815;51.100;6.516;2023-02-11T11:38:44;41.60;;;27.00;;
29958;SDS011;16815;51.100;6.516;2023-02-11T11:41:22;48.93;;;28.83;;
29958;SDS011;16815;51.100;6.516;2023-02-11T11:44:02;51.20;;;28.87;;
29958;SDS011;16815;51.100;6.516;2023-02-11T11:46:33;46.73;;;28.40;;
29958;SDS011;16815;51.100;6.516;2023-02-11T11:49:13;46.53;;;29.53;;
29958;SDS011;16815;51.100;6.516;2023-02-11T11:51:44;46.03;;;27.43;;
29958;SDS011;16815;51.100;6.516;2023-02-11T11:54:12;45.33;;;28.87;;
29958;SDS011;16815;51.100;6.516;2023-02-11T11:56:40;46.60;;;27.67;;
29958;SDS011;16815;51.100;6.516;2023-02-11T11:59:12;45.00;;;29.23;;
29958;SDS011;16815;51.100;6.516;2023-02-11T12:07:04;46.33;;;29.27;;
29958;SDS011;16815;51.100;6.516;2023-02-11T12:14:58;49.20;;;30.23;;
29958;SDS011;16815;51.100;6.516;2023-02-11T12:25:18;47.53;;;28.90;;
29958;SDS011;16815;51.100;6.516;2023-02-11T12:27:49;50.43;;;31.67;;
29958;SDS011;16815;51.100;6.516;2023-02-11T12:30:31;50.17;;;28.83;;
29958;SDS011;16815;51.100;6.516;2023-02-11T12:35:54;51.17;;;32.00;;
29958;SDS011;16815;51.100;6.516;2023-02-11T12:43:40;50.47;;;29.70;;
29958;SDS011;16815;51.100;6.516;2023-02-11T12:49:01;50.40;;;29.90;;
29958;SDS011;16815;51.100;6.516;2023-02-11T12:51:39;53.43;;;31.03;;
29958;SDS011;16815;51.100;6.516;2023-02-11T12:59:02;51.80;;;31.80;;
29958;SDS011;16815;51.100;6.516;2023-02-11T13:01:33;49.67;;;30.53;;
29958;SDS011;16815;51.100;6.516;2023-02-11T13:06:48;49.87;;;32.10;;
29958;SDS011;16815;51.100;6.516;2023-02-11T13:09:16;54.73;;;32.47;;
29958;SDS011;16815;51.100;6.516;2023-02-11T13:11:45;48.30;;;30.80;;
29958;SDS011;16815;51.100;6.516;2023-02-11T13:14:29;52.60;;;32.90;;
29958;SDS011;16815;51.100;6.516;2023-02-11T13:16:56;56.00;;;31.47;;
29958;SDS011;16815;51.100;6.516;2023-02-11T13:19:25;56.30;;;32.50;;
29958;SDS011;16815;51.100;6.516;2023-02-11T13:35:26;55.10;;;32.57;;
29958;SDS011;16815;51.100;6.516;2023-02-11T13:37:53;57.97;;;33.03;;
29958;SDS011;16815;51.100;6.516;2023-02-11T13:40:24;58.70;;;32.77;;
29958;SDS011;16815;51.100;6.516;2023-02-11T13:42:51;52.37;;;31.57;;
29958;SDS011;16815;51.100;6.516;2023-02-11T13:47:59;57.87;;;33.03;;
29958;SDS011;16815;51.100;6.516;2023-02-11T13:50:25;59.77;;;33.87;;
29958;SDS011;16815;51.100;6.516;2023-02-11T13:52:59;54.87;;;32.37;;
29958;SDS011;16815;51.100;6.516;2023-02-11T13:55:25;59.87;;;31.40;;
29958;SDS011;16815;51.100;6.516;2023-02-11T14:03:16;56.83;;;32.97;;
29958;SDS011;16815;51.100;6.516;2023-02-11T14:08:58;53.53;;;31.87;;
29958;SDS011;16815;51.100;6.516;2023-02-11T14:16:20;52.63;;;30.77;;
29958;SDS011;16815;51.100;6.516;2023-02-11T14:21:14;56.77;;;32.03;;
29958;SDS011;16815;51.100;6.516;2023-02-11T14:23:41;57.00;;;31.47;;
29958;SDS011;16815;51.100;6.516;2023-02-11T14:26:12;62.10;;;33.80;;
29958;SDS011;16815;51.100;6.516;2023-02-11T14:28:48;59.80;;;33.70;;
29958;SDS011;16815;51.100;6.516;2023-02-11T14:34:18;48.87;;;31.33;;
29958;SDS011;16815;51.100;6.516;2023-02-11T14:36:51;53.87;;;31.53;;
29958;SDS011;16815;51.100;6.516;2023-02-11T14:42:04;56.80;;;31.80;;
29958;SDS011;16815;51.100;6.516;2023-02-11T14:44:30;56.13;;;32.20;;
29958;SDS011;16815;51.100;6.516;2023-02-11T14:46:57;54.30;;;32.07;;
29958;SDS011;16815;51.100;6.516;2023-02-11T14:49:31;58.77;;;33.40;;
29958;SDS011;16815;51.100;6.516;2023-02-11T14:51:59;57.23;;;32.83;;
29958;SDS011;16815;51.100;6.516;2023-02-11T14:54:28;59.67;;;33.23;;
29958;SDS011;16815;51.100;6.516;2023-02-11T14:57:04;59.40;;;32.23;;
29958;SDS011;16815;51.100;6.516;2023-02-11T14:59:30;49.27;;;31.37;;
29958;SDS011;16815;51.100;6.516;2023-02-11T15:01:56;60.00;;;33.30;;
29958;SDS011;16815;51.100;6.516;2023-02-11T15:04:23;56.57;;;32.30;;
29958;SDS011;16815;51.100;6.516;2023-02-11T15:06:50;54.23;;;33.13;;
29958;SDS011;16815;51.100;6.516;2023-02-11T15:11:43;55.57;;;32.00;;
29958;SDS011;16815;51.100;6.516;2023-02-11T15:14:18;60.50;;;33.77;;
29958;SDS011;16815;51.100;6.516;2023-02-11T15:16:44;55.07;;;34.40;;
29958;SDS011;16815;51.100;6.516;2023-02-11T15:19:30;56.93;;;33.70;;
29958;SDS011;16815;51.100;6.516;2023-02-11T15:21:56;59.10;;;32.10;;
29958;SDS011;16815;51.100;6.516;2023-02-11T15:24:25;58.73;;;32.93;;
29958;SDS011;16815;51.100;6.516;2023-02-11T15:27:10;59.60;;;34.67;;
29958;SDS011;16815;51.100;6.516;2023-02-11T15:29:42;54.13;;;32.73;;
29958;SDS011;16815;51.100;6.516;2023-02-11T15:34:38;57.83;;;33.53;;
29958;SDS011;16815;51.100;6.516;2023-02-11T15:37:04;56.97;;;34.40;;
29958;SDS011;16815;51.100;6.516;2023-02-11T15:39:37;52.53;;;33.63;;
29958;SDS011;16815;51.100;6.516;2023-02-11T15:42:14;50.43;;;31.63;;
29958;SDS011;16815;51.100;6.516;2023-02-11T15:44:40;60.53;;;33.47;;
29958;SDS011;16815;51.100;6.516;2023-02-11T15:47:10;53.57;;;31.23;;
29958;SDS011;16815;51.100;6.516;2023-02-11T15:49:36;62.10;;;36.23;;
29958;SDS011;16815;51.100;6.516;2023-02-11T15:52:03;54.23;;;31.77;;
29958;SDS011;16815;51.100;6.516;2023-02-11T15:54:32;54.40;;;33.20;;
29958;SDS011;16815;51.100;6.516;2023-02-11T15:57:00;56.27;;;31.23;;
29958;SDS011;16815;51.100;6.516;2023-02-11T16:01:54;59.30;;;34.07;;
29958;SDS011;16815;51.100;6.516;2023-02-11T16:04:22;52.93;;;32.23;;
29958;SDS011;16815;51.100;6.516;2023-02-11T16:06:49;55.33;;;33.50;;
29958;SDS011;16815;51.100;6.516;2023-02-11T16:14:22;54.53;;;31.60;;
29958;SDS011;16815;51.100;6.516;2023-02-11T16:16:48;54.70;;;34.03;;
29958;SDS011;16815;51.100;6.516;2023-02-11T16:19:17;53.73;;;32.53;;
29958;SDS011;16815;51.100;6.516;2023-02-11T16:21:43;53.73;;;32.30;;
29958;SDS011;16815;51.100;6.516;2023-02-11T16:24:44;55.17;;;32.93;;
29958;SDS011;16815;51.100;6.516;2023-02-11T16:27:03;55.97;;;31.60;;
29958;SDS011;16815;51.100;6.516;2023-02-11T16:29:30;54.20;;;32.00;;
29958;SDS011;16815;51.100;6.516;2023-02-11T16:34:34;57.03;;;33.17;;
29958;SDS011;16815;51.100;6.516;2023-02-11T16:37:02;52.73;;;32.67;;
29958;SDS011;16815;51.100;6.516;2023-02-11T16:39:28;53.03;;;32.77;;
29958;SDS011;16815;51.100;6.516;2023-02-11T16:41:54;50.50;;;31.43;;
29958;SDS011;16815;51.100;6.516;2023-02-11T16:44:21;52.73;;;32.57;;
29958;SDS011;16815;51.100;6.516;2023-02-11T16:46:47;54.07;;;32.43;;